createdAt,value
2019-04-03T00:00:00.679Z,26.93
2019-04-03T00:02:02.664Z,27.20
2019-04-03T00:04:06.081Z,25.80
2019-04-03T00:06:08.037Z,33.63
2019-04-03T00:08:09.736Z,26.97
2019-04-03T00:10:12.048Z,29.77
2019-04-03T00:12:13.970Z,33.23
2019-04-03T00:14:15.677Z,27.97
2019-04-03T00:16:17.388Z,27.53
2019-04-03T00:18:19.109Z,31.13
2019-04-03T00:20:20.921Z,30.27
2019-04-03T00:22:22.625Z,31.60
2019-04-03T00:24:24.321Z,27.60
2019-04-03T00:26:26.014Z,31.97
2019-04-03T00:28:27.777Z,27.00
2019-04-03T00:30:29.622Z,27.20
2019-04-03T00:32:31.319Z,27.10
2019-04-03T00:34:33.364Z,31.70
2019-04-03T00:36:35.068Z,31.23
2019-04-03T00:38:36.783Z,28.83
2019-04-03T00:40:38.918Z,29.53
2019-04-03T00:42:41.228Z,31.73
2019-04-03T00:44:43.096Z,33.10
2019-04-03T00:46:45.213Z,33.37
2019-04-03T00:48:46.901Z,33.47
2019-04-03T00:50:48.801Z,32.07
2019-04-03T00:52:50.611Z,29.10
2019-04-03T00:54:52.302Z,30.10
2019-04-03T00:56:56.125Z,36.37
2019-04-03T00:58:57.589Z,31.10
2019-04-03T01:00:59.445Z,33.43
2019-04-03T01:03:01.132Z,35.10
2019-04-03T01:05:03.475Z,34.87
2019-04-03T01:07:05.598Z,31.70
2019-04-03T01:09:07.613Z,34.90
2019-04-03T01:11:09.329Z,34.50
2019-04-03T01:13:11.253Z,35.23
2019-04-03T01:15:13.233Z,33.13
2019-04-03T01:17:14.938Z,32.87
2019-04-03T01:19:16.747Z,37.40
2019-04-03T01:21:18.436Z,32.37
2019-04-03T01:23:20.576Z,38.20
2019-04-03T01:25:22.271Z,33.50
2019-04-03T01:27:24.133Z,36.50
2019-04-03T01:29:26.074Z,37.47
2019-04-03T01:31:27.805Z,36.63
2019-04-03T01:33:29.496Z,34.10
2019-04-03T01:35:31.307Z,39.30
2019-04-03T01:37:33.045Z,37.47
2019-04-03T01:39:34.744Z,33.90
2019-04-03T01:41:36.449Z,33.30
2019-04-03T01:43:38.264Z,32.93
2019-04-03T01:45:39.974Z,32.70
2019-04-03T01:47:41.665Z,33.87
2019-04-03T01:49:43.365Z,32.13
2019-04-03T01:51:45.060Z,31.43
2019-04-03T01:53:46.964Z,30.07
2019-04-03T01:55:48.712Z,28.30
2019-04-03T01:57:50.611Z,39.37
2019-04-03T01:59:52.364Z,33.20
2019-04-03T02:01:54.064Z,34.47
2019-04-03T02:03:55.765Z,33.90
2019-04-03T02:05:57.470Z,31.50
2019-04-03T02:07:59.180Z,31.53
2019-04-03T02:10:00.968Z,32.73
2019-04-03T02:12:03.153Z,30.67
2019-04-03T02:14:04.874Z,32.17
2019-04-03T02:16:06.670Z,29.10
2019-04-03T02:18:08.385Z,33.07
2019-04-03T02:20:10.385Z,32.80
2019-04-03T02:22:12.217Z,38.03
2019-04-03T02:24:14.025Z,34.03
2019-04-03T02:26:15.725Z,34.43
2019-04-03T02:28:17.418Z,32.10
2019-04-03T02:30:19.371Z,29.77
2019-04-03T02:32:23.149Z,31.17
2019-04-03T02:34:24.854Z,31.70
2019-04-03T02:36:26.770Z,31.80
2019-04-03T02:38:28.780Z,37.03
2019-04-03T02:40:32.716Z,32.07
2019-04-03T02:42:34.586Z,35.57
2019-04-03T02:44:36.301Z,33.63
2019-04-03T02:46:38.415Z,36.47
2019-04-03T02:48:40.493Z,32.57
2019-04-03T02:50:46.543Z,32.27
2019-04-03T02:52:46.284Z,31.23
2019-04-03T02:54:48.811Z,33.80
2019-04-03T02:56:50.519Z,33.47
2019-04-03T02:58:53.958Z,32.23
2019-04-03T03:00:56.023Z,31.70
2019-04-03T03:02:57.731Z,36.67
2019-04-03T03:04:59.538Z,33.60
2019-04-03T03:07:04.451Z,33.07
2019-04-03T03:09:05.752Z,31.80
2019-04-03T03:11:07.781Z,34.00
2019-04-03T03:13:09.566Z,38.13
2019-04-03T03:15:12.557Z,35.00
2019-04-03T03:17:15.941Z,31.60
2019-04-03T03:19:18.615Z,32.23
2019-04-03T03:21:20.598Z,38.63
2019-04-03T03:23:24.097Z,37.97
2019-04-03T03:25:27.403Z,32.17
2019-04-03T03:27:29.331Z,33.23
2019-04-03T03:29:31.732Z,36.37
2019-04-03T03:31:59.131Z,30.80
2019-04-03T03:33:40.424Z,35.47
2019-04-03T03:35:45.519Z,33.70
2019-04-03T03:37:45.152Z,33.73
2019-04-03T03:39:47.578Z,31.63
2019-04-03T03:41:50.019Z,32.13
2019-04-03T03:43:52.905Z,40.30
2019-04-03T03:45:55.194Z,27.30
2019-04-03T03:47:59.281Z,34.83
2019-04-03T03:50:01.447Z,36.07
2019-04-03T03:52:05.392Z,32.27
2019-04-03T03:54:07.811Z,32.07
2019-04-03T03:56:10.018Z,31.87
2019-04-03T03:58:13.378Z,34.33
2019-04-03T04:00:16.061Z,34.00
2019-04-03T04:02:18.080Z,32.93
2019-04-03T04:04:19.974Z,36.13
2019-04-03T04:06:21.678Z,33.00
2019-04-03T04:08:23.478Z,32.13
2019-04-03T04:10:27.502Z,32.63
2019-04-03T04:12:29.706Z,33.03
2019-04-03T04:14:31.840Z,30.00
2019-04-03T04:16:37.113Z,29.83
2019-04-03T04:18:38.205Z,33.83
2019-04-03T04:20:40.451Z,32.90
2019-04-03T04:22:42.366Z,33.40
2019-04-03T04:24:44.062Z,33.10
2019-04-03T04:26:45.778Z,31.47
2019-04-03T04:28:48.240Z,32.13
2019-04-03T04:30:50.569Z,35.03
2019-04-03T04:32:52.285Z,31.63
2019-04-03T04:34:53.989Z,34.73
2019-04-03T04:36:56.115Z,33.30
2019-04-03T04:38:58.498Z,33.77
2019-04-03T04:41:01.868Z,31.70
2019-04-03T04:43:04.391Z,30.80
2019-04-03T04:45:07.685Z,32.47
2019-04-03T04:47:09.388Z,30.90
2019-04-03T04:49:11.113Z,32.10
2019-04-03T04:51:12.811Z,36.23
2019-04-03T04:53:14.524Z,36.07
2019-04-03T04:55:16.341Z,35.43
2019-04-03T04:57:18.049Z,34.87
2019-04-03T04:59:19.756Z,35.20
2019-04-03T05:01:21.458Z,32.50
2019-04-03T05:03:23.156Z,31.83
2019-04-03T05:05:26.804Z,33.23
2019-04-03T05:07:30.622Z,31.53
2019-04-03T05:09:34.359Z,36.73
2019-04-03T05:11:36.851Z,30.17
2019-04-03T05:13:39.511Z,29.17
2019-04-03T05:15:41.331Z,35.73
2019-04-03T05:17:43.110Z,30.67
2019-04-03T05:19:44.982Z,29.93
2019-04-03T05:21:46.816Z,32.57
2019-04-03T05:23:51.472Z,30.90
2019-04-03T05:25:53.471Z,32.50
2019-04-03T05:27:55.750Z,33.83
2019-04-03T05:29:57.532Z,33.50
2019-04-03T05:31:59.349Z,34.93
2019-04-03T05:34:01.260Z,34.90
2019-04-03T05:36:02.950Z,34.87
2019-04-03T05:38:04.698Z,35.87
2019-04-03T05:40:06.798Z,34.87
2019-04-03T05:42:08.489Z,30.90
2019-04-03T05:44:10.596Z,37.03
2019-04-03T05:46:12.473Z,34.80
2019-04-03T05:48:17.783Z,31.10
2019-04-03T05:50:17.989Z,35.70
2019-04-03T05:52:19.893Z,33.90
2019-04-03T05:54:21.897Z,28.17
2019-04-03T05:56:23.778Z,34.10
2019-04-03T05:58:25.633Z,32.60
2019-04-03T06:00:27.429Z,29.23
2019-04-03T06:02:29.137Z,33.10
2019-04-03T06:04:30.865Z,29.97
2019-04-03T06:06:32.577Z,29.90
2019-04-03T06:08:35.004Z,29.60
2019-04-03T06:10:37.653Z,32.57
2019-04-03T06:12:39.490Z,30.97
2019-04-03T06:14:41.299Z,28.20
2019-04-03T06:16:43.033Z,25.47
2019-04-03T06:18:47.371Z,27.53
2019-04-03T06:20:48.657Z,29.97
2019-04-03T06:22:50.658Z,31.23
2019-04-03T06:24:55.829Z,30.77
2019-04-03T06:26:56.485Z,28.60
2019-04-03T06:28:58.182Z,30.40
2019-04-03T06:31:00.103Z,28.43
2019-04-03T06:33:02.275Z,32.93
2019-04-03T06:35:04.172Z,30.30
2019-04-03T06:37:05.946Z,31.23
2019-04-03T06:39:08.024Z,29.10
2019-04-03T06:41:09.727Z,28.20
2019-04-03T06:43:11.429Z,32.70
2019-04-03T06:45:15.578Z,26.20
2019-04-03T06:47:17.163Z,30.83
2019-04-03T06:49:19.030Z,28.40
2019-04-03T06:51:20.734Z,27.33
2019-04-03T06:53:25.769Z,30.87
2019-04-03T06:55:26.158Z,28.47
2019-04-03T06:57:27.857Z,28.17
2019-04-03T06:59:29.545Z,25.73
2019-04-03T07:01:31.234Z,28.83
2019-04-03T07:03:34.316Z,26.07
2019-04-03T07:05:36.731Z,28.87
2019-04-03T07:07:38.525Z,27.60
2019-04-03T07:09:40.263Z,30.83
2019-04-03T07:11:43.250Z,28.97
2019-04-03T07:13:45.834Z,29.70
2019-04-03T07:15:47.941Z,29.20
2019-04-03T07:17:49.624Z,30.30
2019-04-03T07:19:51.312Z,28.20
2019-04-03T07:21:55.173Z,28.13
2019-04-03T07:23:56.657Z,28.60
2019-04-03T07:25:58.353Z,31.03
2019-04-03T07:28:00.409Z,26.10
2019-04-03T07:30:02.688Z,29.17
2019-04-03T07:32:04.517Z,27.90
2019-04-03T07:34:06.776Z,30.67
2019-04-03T07:36:08.786Z,25.87
2019-04-03T07:38:12.388Z,39.83
2019-04-03T07:40:14.569Z,30.47
2019-04-03T07:42:16.596Z,28.47
2019-04-03T07:44:18.295Z,26.00
2019-04-03T07:46:19.989Z,28.77
2019-04-03T07:48:21.863Z,30.20
2019-04-03T07:50:23.724Z,24.33
2019-04-03T07:52:25.432Z,27.47
2019-04-03T07:54:27.341Z,26.30
2019-04-03T07:56:29.144Z,27.37
2019-04-03T07:58:32.083Z,24.73
2019-04-03T08:00:34.434Z,36.23
2019-04-03T08:02:36.401Z,37.67
2019-04-03T08:04:38.105Z,23.37
2019-04-03T08:06:39.814Z,27.57
2019-04-03T08:08:41.712Z,24.47
2019-04-03T08:10:43.649Z,28.43
2019-04-03T08:12:45.490Z,23.87
2019-04-03T08:14:47.285Z,25.13
2019-04-03T08:16:48.995Z,26.80
2019-04-03T08:18:51.748Z,24.20
2019-04-03T08:20:56.283Z,21.47
2019-04-03T08:22:58.532Z,26.27
2019-04-03T08:25:00.752Z,24.20
2019-04-03T08:27:03.176Z,23.53
2019-04-03T08:29:05.081Z,24.23
2019-04-03T08:31:07.050Z,25.63
2019-04-03T08:33:15.969Z,23.43
2019-04-03T08:35:21.714Z,21.33
2019-04-03T08:37:28.421Z,22.80
2019-04-03T08:39:21.392Z,20.30
2019-04-03T08:41:24.188Z,23.90
2019-04-03T08:43:27.235Z,19.43
2019-04-03T08:45:29.016Z,25.50
2019-04-03T08:47:30.908Z,27.07
2019-04-03T08:49:32.721Z,21.33
2019-04-03T08:51:34.977Z,21.37
2019-04-03T08:53:39.311Z,22.40
2019-04-03T08:55:40.868Z,24.53
2019-04-03T08:57:45.353Z,20.57
2019-04-03T08:59:47.298Z,20.87
2019-04-03T09:01:49.168Z,24.70
2019-04-03T09:03:50.898Z,21.97
2019-04-03T09:05:55.671Z,20.67
2019-04-03T09:07:56.892Z,21.40
2019-04-03T09:10:00.976Z,25.53
2019-04-03T09:12:02.408Z,24.20
2019-04-03T09:14:04.648Z,21.80
2019-04-03T09:16:07.056Z,20.80
2019-04-03T09:18:10.145Z,25.57
2019-04-03T09:20:13.502Z,25.17
2019-04-03T09:22:15.951Z,24.23
2019-04-03T09:24:17.649Z,23.37
2019-04-03T09:26:19.526Z,22.20
2019-04-03T09:28:21.684Z,20.60
2019-04-03T09:30:23.798Z,21.43
2019-04-03T09:32:25.741Z,25.97
2019-04-03T09:34:29.726Z,25.63
2019-04-03T09:36:31.099Z,22.40
2019-04-03T09:38:35.301Z,21.53
2019-04-03T09:40:36.402Z,21.87
2019-04-03T09:42:38.348Z,25.30
2019-04-03T09:44:40.063Z,22.30
2019-04-03T09:46:44.470Z,22.80
2019-04-03T09:48:46.087Z,23.67
2019-04-03T09:50:47.793Z,25.30
2019-04-03T09:52:50.692Z,27.57
2019-04-03T09:54:52.854Z,27.07
2019-04-03T09:57:01.650Z,27.53
2019-04-03T09:58:58.190Z,28.97
2019-04-03T10:01:00.726Z,28.33
2019-04-03T10:03:05.364Z,32.20
2019-04-03T10:05:06.906Z,35.27
2019-04-03T10:07:08.590Z,34.53
2019-04-03T10:09:12.111Z,31.27
2019-04-03T10:11:15.528Z,36.60
2019-04-03T10:13:17.966Z,31.20
2019-04-03T10:15:20.324Z,33.70
2019-04-03T10:17:22.057Z,39.40
2019-04-03T10:19:23.845Z,35.53
2019-04-03T10:21:25.545Z,38.40
2019-04-03T10:23:29.109Z,39.40
2019-04-03T10:25:31.048Z,40.17
2019-04-03T10:27:32.760Z,35.80
2019-04-03T10:29:34.685Z,39.10
2019-04-03T10:31:36.489Z,39.07
2019-04-03T10:33:38.507Z,34.77
2019-04-03T10:35:40.502Z,35.50
2019-04-03T10:37:45.271Z,37.20
2019-04-03T10:39:46.329Z,33.00
2019-04-03T10:41:48.394Z,36.07
2019-04-03T10:43:50.199Z,43.33
2019-04-03T10:45:51.892Z,37.83
2019-04-03T10:47:55.705Z,36.00
2019-04-03T10:49:57.450Z,32.77
2019-04-03T10:51:59.470Z,36.57
2019-04-03T10:54:01.874Z,31.97
2019-04-03T10:56:04.425Z,35.50
2019-04-03T10:58:07.139Z,35.70
2019-04-03T11:00:11.037Z,32.77
2019-04-03T11:02:13.064Z,31.83
2019-04-03T11:04:14.829Z,31.80
2019-04-03T11:06:16.943Z,32.67
2019-04-03T11:08:19.070Z,32.40
2019-04-03T11:10:23.320Z,33.40
2019-04-03T11:12:24.796Z,34.40
2019-04-03T11:14:26.582Z,33.80
2019-04-03T11:16:28.642Z,29.73
2019-04-03T11:23:36.562Z,33.30
2019-04-03T11:25:26.942Z,30.00
2019-04-03T11:27:40.661Z,31.07
2019-04-03T11:29:32.245Z,32.37
2019-04-03T11:31:40.974Z,34.33
2019-04-03T11:33:38.147Z,31.43
2019-04-03T11:35:39.849Z,29.37
2019-04-03T11:37:41.570Z,27.10
2019-04-03T11:39:44.093Z,33.33
2019-04-03T11:41:47.804Z,29.40
2019-04-03T11:43:49.897Z,42.67
2019-04-03T11:45:51.772Z,31.30
2019-04-03T11:47:53.748Z,29.30
2019-04-03T11:49:55.603Z,24.80
2019-04-03T11:51:58.947Z,29.53
2019-04-03T11:54:01.776Z,25.73
2019-04-03T11:56:04.271Z,32.53
2019-04-03T11:58:06.234Z,23.57
2019-04-03T12:00:13.696Z,23.90
2019-04-03T12:02:15.501Z,22.07
2019-04-03T12:04:17.449Z,23.93
2019-04-03T12:06:20.219Z,24.20
2019-04-03T12:08:22.945Z,23.10
2019-04-03T12:10:26.074Z,24.80
2019-04-03T12:12:28.370Z,25.80
2019-04-03T12:14:30.144Z,25.17
2019-04-03T12:16:31.892Z,28.87
2019-04-03T12:18:34.317Z,26.53
2019-04-03T12:20:36.433Z,27.90
2019-04-03T12:22:38.551Z,28.80
2019-04-03T12:24:40.505Z,25.00
2019-04-03T12:26:43.590Z,28.53
2019-04-03T12:28:48.324Z,25.93
2019-04-03T12:30:49.753Z,26.53
2019-04-03T12:32:51.593Z,28.07
2019-04-03T12:34:53.313Z,26.37
2019-04-03T12:36:54.997Z,27.47
2019-04-03T12:38:57.215Z,27.20
2019-04-03T12:40:59.281Z,26.60
2019-04-03T12:43:00.985Z,25.20
2019-04-03T12:45:05.307Z,31.00
2019-04-03T12:47:12.144Z,23.17
2019-04-03T12:49:11.398Z,26.20
2019-04-03T12:51:13.376Z,22.10
2019-04-03T12:53:16.469Z,25.53
2019-04-03T12:55:19.847Z,21.27
2019-04-03T12:57:21.669Z,18.50
2019-04-03T12:59:23.739Z,18.60
2019-04-03T13:01:25.686Z,15.73
2019-04-03T13:03:27.789Z,15.60
2019-04-03T13:05:29.752Z,20.33
2019-04-03T13:07:31.602Z,14.70
2019-04-03T13:10:15.534Z,17.17
2019-04-03T13:12:25.884Z,15.13
2019-04-03T13:14:33.511Z,15.90
2019-04-03T13:16:34.097Z,15.97
2019-04-03T13:18:36.209Z,15.60
2019-04-03T13:20:38.195Z,14.40
2019-04-03T13:22:42.080Z,16.23
2019-04-03T13:24:43.821Z,12.53
2019-04-03T13:26:45.876Z,12.67
2019-04-03T13:28:47.971Z,12.00
2019-04-03T13:30:49.852Z,10.77
2019-04-03T13:32:58.365Z,15.40
2019-04-03T13:34:55.344Z,9.90
2019-04-03T13:36:57.369Z,8.57
2019-04-03T13:39:01.242Z,9.60
2019-04-03T13:41:05.179Z,10.43
2019-04-03T13:43:07.212Z,9.17
2019-04-03T13:45:09.463Z,9.83
2019-04-03T13:47:11.577Z,11.13
2019-04-03T13:49:15.175Z,13.23
2019-04-03T13:51:17.140Z,14.50
2019-04-03T13:53:20.522Z,12.27
2019-04-03T13:55:22.750Z,17.40
2019-04-03T13:57:24.821Z,12.17
2019-04-03T13:59:27.200Z,15.40
2019-04-03T14:01:29.052Z,13.20
2019-04-03T14:03:31.030Z,13.47
2019-04-03T14:05:33.650Z,11.40
2019-04-03T14:07:36.283Z,14.30
2019-04-03T14:09:38.312Z,15.33
2019-04-03T14:11:40.063Z,14.33
2019-04-03T14:13:43.623Z,17.53
2019-04-03T14:15:45.631Z,18.27
2019-04-03T14:17:55.452Z,20.37
2019-04-03T14:19:52.697Z,27.70
2019-04-03T14:21:54.752Z,17.57
2019-04-03T14:23:56.836Z,18.97
2019-04-03T14:26:05.668Z,21.37
2019-04-03T14:28:03.425Z,19.77
2019-04-03T14:30:09.776Z,21.93
2019-04-03T14:32:13.577Z,21.23
2019-04-03T14:34:14.471Z,19.70
2019-04-03T14:36:18.489Z,18.10
2019-04-03T14:38:20.038Z,18.80
2019-04-03T14:40:22.792Z,18.60
2019-04-03T14:42:26.406Z,19.67
2019-04-03T14:44:28.322Z,22.20
2019-04-03T14:46:30.317Z,22.40
2019-04-03T14:48:32.116Z,20.90
2019-04-03T14:50:36.505Z,20.23
2019-04-03T14:52:37.653Z,25.43
2019-04-03T14:54:39.348Z,26.17
2019-04-03T14:56:41.217Z,23.97
2019-04-03T14:58:43.073Z,28.20
2019-04-03T15:00:46.758Z,25.33
2019-04-03T15:02:49.138Z,24.87
2019-04-03T15:04:51.221Z,26.60
2019-04-03T15:07:02.062Z,26.87
2019-04-03T15:08:56.879Z,22.67
2019-04-03T15:10:58.722Z,24.57
2019-04-03T15:13:00.572Z,25.80
2019-04-03T15:15:03.660Z,28.20
2019-04-03T15:17:05.912Z,25.43
2019-04-03T15:19:07.765Z,24.93
2019-04-03T15:21:09.932Z,26.23
2019-04-03T15:23:12.123Z,24.60
2019-04-03T15:25:15.443Z,22.80
2019-04-03T15:27:18.055Z,25.80
2019-04-03T15:29:20.306Z,23.67
2019-04-03T15:31:24.378Z,23.30
2019-04-03T15:33:26.158Z,26.93
2019-04-03T15:35:28.066Z,22.23
2019-04-03T15:37:29.825Z,21.47
2019-04-03T15:39:32.298Z,22.57
2019-04-03T15:41:34.922Z,23.97
2019-04-03T15:43:37.141Z,21.30
2019-04-03T15:45:39.989Z,22.77
2019-04-03T15:47:45.372Z,18.97
2019-04-03T15:49:45.496Z,22.93
2019-04-03T15:51:47.185Z,19.30
2019-04-03T15:53:48.933Z,19.70
2019-04-03T15:55:50.643Z,21.37
2019-04-03T15:57:53.256Z,18.23
2019-04-03T15:59:55.749Z,20.43
2019-04-03T16:01:57.554Z,20.87
2019-04-03T16:04:00.057Z,18.47
2019-04-03T16:06:03.940Z,21.17
2019-04-03T16:08:05.932Z,17.50
2019-04-03T16:10:07.747Z,18.93
2019-04-03T16:12:11.601Z,31.83
2019-04-03T16:14:13.699Z,20.80
2019-04-03T16:16:15.519Z,20.83
2019-04-03T16:18:20.015Z,19.20
2019-04-03T16:20:21.369Z,20.80
2019-04-03T16:22:23.888Z,19.13
2019-04-03T16:24:25.865Z,19.47
2019-04-03T16:26:28.147Z,17.80
2019-04-03T16:28:33.368Z,17.60
2019-04-03T16:30:34.160Z,18.23
2019-04-03T16:32:36.609Z,17.30
2019-04-03T16:34:40.811Z,40.10
2019-04-03T16:36:42.456Z,17.67
2019-04-03T16:38:44.696Z,17.20
2019-04-03T16:40:47.338Z,17.47
2019-04-03T16:42:52.384Z,18.07
2019-04-03T16:44:53.237Z,18.93
2019-04-03T16:46:54.992Z,17.50
2019-04-03T16:48:56.996Z,18.97
2019-04-03T16:51:01.587Z,67.70
2019-04-03T16:53:03.827Z,16.33
2019-04-03T16:55:07.101Z,16.50
2019-04-03T16:57:09.144Z,18.23
2019-04-03T16:59:10.890Z,18.60
2019-04-03T17:01:14.334Z,16.53
2019-04-03T17:03:16.342Z,17.90
2019-04-03T17:05:18.504Z,16.13
2019-04-03T17:07:21.767Z,16.20
2019-04-03T17:09:24.078Z,19.50
2019-04-03T17:11:26.244Z,17.03
2019-04-03T17:13:28.069Z,16.93
2019-04-03T17:15:30.336Z,15.37
2019-04-03T17:17:32.733Z,15.93
2019-04-03T17:19:34.961Z,13.73
2019-04-03T17:21:38.768Z,13.97
2019-04-03T17:23:43.321Z,16.73
2019-04-03T17:25:49.055Z,15.70
2019-04-03T17:27:55.027Z,15.10
2019-04-03T17:29:52.316Z,14.90
2019-04-03T17:31:57.507Z,16.63
2019-04-03T17:33:58.101Z,16.73
2019-04-03T17:36:00.056Z,18.40
2019-04-03T17:41:07.001Z,16.37
2019-04-03T17:43:09.106Z,14.73
2019-04-03T17:45:16.228Z,15.40
2019-04-03T17:47:23.481Z,18.07
2019-04-03T17:49:30.587Z,18.50
2019-04-03T17:51:34.467Z,19.43
2019-04-03T17:53:36.745Z,15.67
2019-04-03T17:55:41.279Z,18.33
2019-04-03T17:57:44.853Z,23.40
2019-04-03T17:59:48.868Z,17.57
2019-04-03T18:01:50.617Z,16.97
2019-04-03T18:03:54.293Z,16.30
2019-04-03T18:05:57.000Z,18.87
2019-04-03T18:07:59.772Z,18.10
2019-04-03T18:10:02.046Z,20.27
2019-04-03T18:12:03.941Z,20.87
2019-04-03T18:14:05.665Z,23.90
2019-04-03T18:16:07.493Z,22.60
2019-04-03T18:18:09.449Z,22.90
2019-04-03T18:20:13.441Z,24.70
2019-04-03T18:22:15.502Z,22.97
2019-04-03T18:24:17.228Z,23.53
2019-04-03T18:26:19.057Z,21.90
2019-04-03T18:28:21.170Z,25.63
2019-04-03T18:30:33.614Z,24.20
2019-04-03T18:32:35.587Z,21.63
2019-04-03T18:34:39.645Z,25.20
2019-04-03T18:36:47.654Z,23.30
2019-04-03T18:38:49.612Z,23.13
2019-04-03T18:40:51.390Z,22.83
2019-04-03T18:42:53.473Z,22.80
2019-04-03T18:44:55.942Z,20.80
2019-04-03T18:47:02.200Z,22.00
2019-04-03T18:49:04.234Z,21.97
2019-04-03T18:51:06.578Z,20.20
2019-04-03T18:53:11.640Z,25.17
2019-04-03T18:55:14.613Z,24.53
2019-04-03T18:57:17.103Z,21.00
2019-04-03T18:59:19.330Z,22.90
2019-04-03T19:01:21.324Z,23.40
2019-04-03T19:03:23.202Z,26.80
2019-04-03T19:05:25.021Z,24.40
2019-04-03T19:07:26.770Z,24.10
2019-04-03T19:09:28.828Z,26.37
2019-04-03T19:11:30.644Z,26.07
2019-04-03T19:13:32.430Z,25.47
2019-04-03T19:15:34.495Z,24.57
2019-04-03T19:17:36.206Z,25.30
2019-04-03T19:19:37.935Z,22.40
2019-04-03T19:21:39.736Z,22.73
2019-04-03T19:23:49.730Z,25.67
2019-04-03T19:25:45.479Z,23.67
2019-04-03T19:27:49.664Z,26.50
2019-04-03T19:29:50.829Z,26.13
2019-04-03T19:31:52.639Z,23.23
2019-04-03T19:33:54.443Z,25.47
2019-04-03T19:35:58.396Z,26.67
2019-04-03T19:37:59.940Z,29.00
2019-04-03T19:40:01.917Z,24.20
2019-04-03T19:42:04.126Z,29.93
2019-04-03T19:44:05.868Z,28.87
2019-04-03T19:46:07.820Z,26.37
2019-04-03T19:48:09.677Z,30.07
2019-04-03T19:50:12.206Z,32.10
2019-04-03T19:52:13.986Z,31.80
2019-04-03T19:54:16.751Z,32.83
2019-04-03T19:56:19.013Z,33.90
2019-04-03T19:58:20.749Z,33.63
2019-04-03T20:00:22.567Z,35.63
2019-04-03T20:02:24.525Z,39.73
2019-04-03T20:04:26.383Z,42.80
2019-04-03T20:06:28.089Z,36.27
2019-04-03T20:08:30.540Z,40.90
2019-04-03T20:10:33.807Z,39.10
2019-04-03T20:12:37.754Z,39.27
2019-04-03T20:14:42.212Z,38.63
2019-04-03T20:16:43.397Z,39.40
2019-04-03T20:18:45.109Z,42.13
2019-04-03T20:20:46.877Z,38.43
2019-04-03T20:22:48.916Z,45.43
2019-04-03T20:24:59.980Z,42.13
2019-04-03T20:26:54.237Z,39.67
2019-04-03T20:28:57.387Z,43.30
2019-04-03T20:30:59.312Z,42.53
2019-04-03T20:33:01.028Z,44.30
2019-04-03T20:35:03.773Z,42.67
2019-04-03T20:37:07.671Z,41.87
2019-04-03T20:39:09.666Z,44.60
2019-04-03T20:41:11.384Z,41.27
2019-04-03T20:43:13.110Z,46.43
2019-04-03T20:45:14.828Z,41.53
2019-04-03T20:47:16.590Z,48.80
2019-04-03T20:49:18.577Z,38.40
2019-04-03T20:51:20.505Z,38.63
2019-04-03T20:53:22.238Z,45.20
2019-04-03T20:55:25.418Z,35.77
2019-04-03T20:57:27.386Z,42.07
2019-04-03T20:59:30.210Z,36.67
2019-04-03T21:01:32.146Z,36.43
2019-04-03T21:03:33.871Z,41.23
2019-04-03T21:05:35.592Z,42.33
2019-04-03T21:07:37.400Z,42.73
2019-04-03T21:09:39.136Z,39.70
2019-04-03T21:11:40.854Z,44.53
2019-04-03T21:13:42.709Z,44.50
2019-04-03T21:15:45.587Z,44.67
2019-04-03T21:17:49.738Z,49.37
2019-04-03T21:19:52.223Z,45.37
2019-04-03T21:21:54.565Z,47.47
2019-04-03T21:23:56.376Z,52.13
2019-04-03T21:25:58.355Z,49.37
2019-04-03T21:28:00.065Z,58.70
2019-04-03T21:30:01.981Z,48.40
2019-04-03T21:32:03.709Z,49.67
2019-04-03T21:34:05.519Z,51.40
2019-04-03T21:36:07.656Z,48.27
2019-04-03T21:38:10.954Z,49.23
2019-04-03T21:40:15.270Z,52.90
2019-04-03T21:42:16.924Z,48.00
2019-04-03T21:44:18.728Z,50.97
2019-04-03T21:46:20.457Z,56.27
2019-04-03T21:48:24.700Z,52.97
2019-04-03T21:50:26.410Z,50.47
2019-04-03T21:52:28.132Z,52.50
2019-04-03T21:54:29.865Z,59.20
2019-04-03T21:56:32.692Z,56.67
2019-04-03T21:58:35.086Z,51.63
2019-04-03T22:01:14.826Z,57.90
2019-04-03T22:03:19.408Z,55.30
2019-04-03T22:05:20.675Z,55.43
2019-04-03T22:07:22.413Z,55.13
2019-04-03T22:09:24.102Z,54.43
2019-04-03T22:11:25.801Z,56.77
2019-04-03T22:13:27.628Z,59.27
2019-04-03T22:15:29.354Z,55.00
2019-04-03T22:17:31.073Z,52.17
2019-04-03T22:19:32.772Z,51.60
2019-04-03T22:21:34.880Z,52.13
2019-04-03T22:23:36.599Z,56.20
2019-04-03T22:25:39.508Z,57.87
2019-04-03T22:27:42.709Z,52.93
2019-04-03T22:29:45.144Z,57.77
2019-04-03T22:31:47.148Z,56.10
2019-04-03T22:33:49.030Z,55.17
2019-04-03T22:35:50.829Z,54.10
2019-04-03T22:37:52.542Z,53.17
2019-04-03T22:39:54.253Z,53.80
2019-04-03T22:41:55.992Z,55.57
2019-04-03T22:43:57.705Z,51.17
2019-04-03T22:45:59.851Z,52.77
2019-04-03T22:48:01.578Z,56.60
2019-04-03T22:50:05.564Z,52.43
2019-04-03T22:52:08.895Z,55.43
2019-04-03T22:54:12.777Z,55.93
2019-04-03T22:56:16.853Z,55.27
2019-04-03T22:58:19.004Z,55.13
2019-04-03T23:00:25.489Z,53.73
2019-04-03T23:02:26.476Z,57.10
2019-04-03T23:04:28.462Z,58.00
2019-04-03T23:06:30.284Z,57.97
2019-04-03T23:08:32.200Z,56.53
2019-04-03T23:10:34.295Z,57.90
2019-04-03T23:12:36.083Z,55.70
2019-04-03T23:14:57.559Z,57.33
2019-04-03T23:16:59.270Z,57.60
2019-04-03T23:19:00.993Z,58.53
2019-04-03T23:21:02.717Z,59.93
2019-04-03T23:23:04.408Z,58.53
2019-04-03T23:25:06.708Z,61.77
2019-04-03T23:27:08.419Z,58.83
2019-04-03T23:29:10.468Z,60.43
2019-04-03T23:31:13.073Z,56.93
2019-04-03T23:33:16.937Z,61.40
2019-04-03T23:35:20.564Z,53.00
2019-04-03T23:37:24.644Z,58.20
2019-04-03T23:39:27.935Z,56.73
2019-04-03T23:41:30.120Z,100.80
2019-04-03T23:43:31.864Z,56.63
2019-04-03T23:45:33.688Z,55.53
2019-04-03T23:47:35.502Z,62.17
2019-04-03T23:49:37.314Z,70.07
2019-04-03T23:51:39.012Z,67.30
2019-04-03T23:53:40.738Z,63.17
2019-04-03T23:55:42.634Z,68.53
2019-04-03T23:57:44.358Z,78.30
2019-04-03T23:59:46.060Z,80.57
